createdAt,value
2023-05-13T00:01:20.277Z,50.91
2023-05-13T00:04:27.081Z,50.89
2023-05-13T00:07:33.034Z,51.21
2023-05-13T00:10:40.180Z,51.75
2023-05-13T00:13:46.202Z,52.23
2023-05-13T00:16:55.978Z,52.94
2023-05-13T00:20:01.887Z,52.59
2023-05-13T00:23:08.974Z,53.13
2023-05-13T00:26:15.079Z,52.76
2023-05-13T00:29:24.939Z,52.72
2023-05-13T00:32:33.470Z,53.07
2023-05-13T00:35:40.766Z,53.72
2023-05-13T00:38:47.980Z,53.83
2023-05-13T00:41:55.373Z,53.73
2023-05-13T00:45:01.410Z,53.77
2023-05-13T00:48:12.479Z,53.54
2023-05-13T00:51:18.979Z,53.91
2023-05-13T00:54:25.724Z,54.17
2023-05-13T00:57:32.777Z,53.89
2023-05-13T01:00:51.602Z,54.10
2023-05-13T01:04:17.971Z,54.11
2023-05-13T01:07:42.961Z,54.11
2023-05-13T01:10:57.641Z,53.99
2023-05-13T01:14:14.768Z,54.17
2023-05-13T01:17:32.160Z,54.81
2023-05-13T01:20:45.879Z,54.79
2023-05-13T01:23:54.521Z,54.33
2023-05-13T01:27:10.203Z,54.07
2023-05-13T01:30:17.642Z,53.78
2023-05-13T01:33:25.827Z,53.72
2023-05-13T01:36:32.470Z,54.19
2023-05-13T01:39:43.332Z,54.44
2023-05-13T01:42:56.370Z,55.11
2023-05-13T01:46:05.010Z,56.31
2023-05-13T01:49:11.155Z,56.90
2023-05-13T01:52:18.130Z,57.79
2023-05-13T01:55:27.487Z,58.40
2023-05-13T01:58:36.501Z,58.31
2023-05-13T02:01:43.139Z,58.51
2023-05-13T02:04:50.044Z,58.67
2023-05-13T02:08:03.050Z,58.77
2023-05-13T02:11:18.759Z,58.69
2023-05-13T02:14:24.875Z,59.07
2023-05-13T02:17:31.771Z,60.42
2023-05-13T02:20:37.806Z,60.95
2023-05-13T02:23:44.592Z,61.37
2023-05-13T02:26:53.323Z,61.14
2023-05-13T02:30:00.224Z,61.64
2023-05-13T02:33:10.725Z,61.34
2023-05-13T02:36:17.761Z,61.57
2023-05-13T02:39:24.368Z,61.67
2023-05-13T02:42:36.171Z,62.25
2023-05-13T02:45:44.570Z,63.95
2023-05-13T02:48:51.552Z,65.06
2023-05-13T02:51:57.550Z,64.50
2023-05-13T02:55:13.316Z,64.50
2023-05-13T02:58:21.994Z,63.95
2023-05-13T03:01:29.616Z,64.36
2023-05-13T03:04:35.529Z,64.65
2023-05-13T03:07:42.305Z,65.04
2023-05-13T03:10:51.745Z,65.90
2023-05-13T03:14:05.952Z,67.13
2023-05-13T03:17:15.191Z,67.62
2023-05-13T03:20:28.690Z,67.74
2023-05-13T03:23:38.498Z,67.71
2023-05-13T03:26:47.180Z,67.56
2023-05-13T03:30:07.122Z,66.97
2023-05-13T03:33:20.886Z,67.15
2023-05-13T03:36:27.283Z,65.74
2023-05-13T03:39:34.503Z,65.50
2023-05-13T03:42:40.723Z,66.34
2023-05-13T03:45:51.847Z,67.43
2023-05-13T03:49:01.270Z,68.20
2023-05-13T03:52:10.975Z,68.89
2023-05-13T03:55:17.015Z,69.66
2023-05-13T03:58:24.213Z,70.39
2023-05-13T04:01:33.480Z,71.24
2023-05-13T04:04:40.514Z,70.20
2023-05-13T04:07:46.799Z,70.26
2023-05-13T04:10:53.771Z,69.47
2023-05-13T04:13:59.982Z,66.85
2023-05-13T04:17:09.841Z,65.71
2023-05-13T04:20:16.371Z,64.89
2023-05-13T04:23:23.095Z,64.25
2023-05-13T04:26:29.302Z,63.31
2023-05-13T04:29:36.178Z,62.62
2023-05-13T04:32:44.768Z,61.77
2023-05-13T04:35:53.209Z,61.51
2023-05-13T04:38:59.109Z,60.97
2023-05-13T04:42:06.439Z,60.23
2023-05-13T04:45:17.975Z,58.71
2023-05-13T04:48:37.609Z,58.76
2023-05-13T04:51:43.885Z,58.44
2023-05-13T04:54:53.181Z,58.04
2023-05-13T04:57:59.295Z,57.38
2023-05-13T05:01:06.370Z,56.38
2023-05-13T05:04:16.376Z,56.30
2023-05-13T05:07:26.408Z,56.41
2023-05-13T05:10:32.548Z,55.81
2023-05-13T05:13:42.434Z,57.09
2023-05-13T05:16:49.232Z,58.12
2023-05-13T05:19:59.526Z,58.30
2023-05-13T05:23:05.854Z,58.93
2023-05-13T05:26:13.476Z,59.15
2023-05-13T05:29:29.190Z,59.14
2023-05-13T05:32:36.957Z,58.60
2023-05-13T05:35:47.052Z,57.84
2023-05-13T05:38:56.631Z,57.72
2023-05-13T05:42:19.976Z,57.69
2023-05-13T05:45:26.784Z,57.70
2023-05-13T05:48:34.605Z,57.83
2023-05-13T05:51:44.791Z,56.71
2023-05-13T05:54:50.981Z,55.50
2023-05-13T05:57:57.874Z,51.01
2023-05-13T06:01:04.673Z,48.83
2023-05-13T06:04:11.530Z,48.57
2023-05-13T06:07:20.283Z,45.81
2023-05-13T06:10:27.113Z,43.30
2023-05-13T06:13:33.506Z,42.06
2023-05-13T06:16:47.239Z,40.24
2023-05-13T06:19:59.683Z,38.68
2023-05-13T06:23:09.031Z,36.47
2023-05-13T06:26:15.066Z,35.85
2023-05-13T06:29:21.872Z,34.49
2023-05-13T06:32:27.883Z,35.81
2023-05-13T06:35:34.861Z,34.58
2023-05-13T06:38:46.146Z,33.45
2023-05-13T06:41:56.941Z,33.94
2023-05-13T06:45:11.993Z,34.37
2023-05-13T06:48:22.403Z,35.11
2023-05-13T06:51:30.841Z,34.08
2023-05-13T06:54:40.520Z,34.04
2023-05-13T06:57:47.596Z,33.77
2023-05-13T07:00:59.950Z,32.86
2023-05-13T07:04:18.323Z,32.39
2023-05-13T07:07:31.207Z,32.76
2023-05-13T07:10:40.232Z,30.98
2023-05-13T07:13:47.509Z,30.12
2023-05-13T07:16:53.672Z,30.48
2023-05-13T07:20:00.522Z,33.22
2023-05-13T07:23:09.115Z,32.38
2023-05-13T07:26:18.566Z,29.83
2023-05-13T07:29:25.907Z,31.07
2023-05-13T07:32:38.357Z,31.04
2023-05-13T07:35:44.411Z,33.53
2023-05-13T07:38:51.273Z,33.23
2023-05-13T07:41:59.849Z,34.79
2023-05-13T07:45:07.552Z,34.37
2023-05-13T07:48:18.643Z,34.42
2023-05-13T07:51:25.582Z,34.01
2023-05-13T07:54:32.165Z,33.33
2023-05-13T07:57:41.667Z,34.75
2023-05-13T08:00:51.701Z,33.42
2023-05-13T08:03:58.848Z,33.00
2023-05-13T08:07:05.269Z,33.03
2023-05-13T08:10:12.691Z,33.66
2023-05-13T08:13:22.167Z,32.05
2023-05-13T08:16:30.721Z,33.99
2023-05-13T08:19:37.041Z,34.87
2023-05-13T08:22:44.134Z,33.51
2023-05-13T08:25:50.269Z,35.11
2023-05-13T08:29:00.301Z,35.12
2023-05-13T08:32:09.856Z,35.46
2023-05-13T08:35:17.076Z,36.34
2023-05-13T08:38:35.197Z,35.85
2023-05-13T08:41:45.319Z,34.80
2023-05-13T08:44:56.366Z,34.33
2023-05-13T08:48:13.318Z,33.56
2023-05-13T08:51:21.771Z,31.79
2023-05-13T08:54:31.420Z,32.27
2023-05-13T08:57:37.505Z,33.92
2023-05-13T09:00:55.741Z,31.49
2023-05-13T09:04:07.637Z,30.55
2023-05-13T09:07:15.118Z,32.29
2023-05-13T09:10:23.354Z,31.53
2023-05-13T09:13:30.313Z,31.90
2023-05-13T09:16:39.928Z,32.80
2023-05-13T09:19:46.814Z,31.98
2023-05-13T09:22:56.028Z,31.20
2023-05-13T09:26:03.172Z,30.25
2023-05-13T09:29:24.332Z,29.44
2023-05-13T09:32:34.302Z,30.73
2023-05-13T09:35:43.823Z,29.42
2023-05-13T09:38:56.396Z,29.05
2023-05-13T09:42:05.604Z,29.03
2023-05-13T09:45:16.011Z,29.40
2023-05-13T09:48:25.800Z,28.98
2023-05-13T09:51:34.419Z,31.34
2023-05-13T09:54:41.125Z,31.03
2023-05-13T09:57:49.809Z,28.35
2023-05-13T10:00:55.997Z,30.19
2023-05-13T10:04:06.629Z,31.21
2023-05-13T10:07:16.058Z,29.58
2023-05-13T10:10:26.261Z,30.36
2023-05-13T10:13:37.297Z,31.09
2023-05-13T10:16:44.616Z,30.17
2023-05-13T10:19:55.075Z,30.61
2023-05-13T10:23:02.551Z,31.98
2023-05-13T10:26:10.735Z,32.56
2023-05-13T10:29:19.553Z,31.77
2023-05-13T10:32:28.682Z,31.71
2023-05-13T10:35:46.485Z,30.61
2023-05-13T10:39:27.099Z,28.85
2023-05-13T10:43:02.814Z,28.47
2023-05-13T10:46:14.500Z,28.48
2023-05-13T10:49:21.589Z,29.22
2023-05-13T10:52:46.926Z,28.19
2023-05-13T10:55:59.576Z,28.36
2023-05-13T10:59:08.141Z,30.87
2023-05-13T11:02:25.457Z,31.18
2023-05-13T11:05:33.261Z,31.92
2023-05-13T11:08:45.702Z,31.50
2023-05-13T11:11:56.865Z,30.72
2023-05-13T11:15:03.853Z,30.16
2023-05-13T11:18:09.909Z,31.48
2023-05-13T11:21:16.894Z,31.81
2023-05-13T11:24:27.341Z,29.28
2023-05-13T11:27:42.238Z,28.32
2023-05-13T11:30:58.804Z,28.84
2023-05-13T11:34:14.301Z,29.75
2023-05-13T11:37:23.520Z,29.27
2023-05-13T11:40:35.955Z,29.26
2023-05-13T11:43:44.603Z,29.62
2023-05-13T11:46:58.336Z,28.75
2023-05-13T11:50:04.524Z,28.17
2023-05-13T11:53:11.442Z,28.80
2023-05-13T11:56:20.117Z,28.39
2023-05-13T11:59:33.306Z,29.39
2023-05-13T12:02:46.612Z,30.55
2023-05-13T12:05:54.031Z,30.89
2023-05-13T12:09:07.742Z,31.22
2023-05-13T12:12:17.935Z,31.46
2023-05-13T12:15:26.059Z,31.12
2023-05-13T12:18:34.046Z,30.76
2023-05-13T12:21:42.013Z,31.89
2023-05-13T12:24:48.935Z,32.27
2023-05-13T12:27:58.070Z,31.57
2023-05-13T12:31:07.501Z,32.50
2023-05-13T12:34:15.058Z,33.00
2023-05-13T12:37:22.507Z,33.09
2023-05-13T12:40:30.900Z,33.11
2023-05-13T12:43:45.083Z,33.30
2023-05-13T12:46:55.593Z,31.70
2023-05-13T12:50:04.041Z,31.07
2023-05-13T12:53:16.453Z,31.53
2023-05-13T12:56:25.517Z,32.39
2023-05-13T12:59:35.021Z,32.81
2023-05-13T13:02:46.378Z,33.90
2023-05-13T13:05:52.746Z,33.68
2023-05-13T13:08:59.873Z,33.60
2023-05-13T13:12:06.022Z,34.50
2023-05-13T13:15:16.125Z,33.88
2023-05-13T13:18:22.287Z,33.19
2023-05-13T13:21:29.406Z,33.71
2023-05-13T13:24:35.896Z,33.45
2023-05-13T13:27:42.628Z,33.84
2023-05-13T13:30:51.353Z,33.26
2023-05-13T13:34:04.474Z,33.35
2023-05-13T13:37:13.788Z,33.02
2023-05-13T13:40:20.729Z,33.77
2023-05-13T13:43:27.172Z,33.71
2023-05-13T13:46:36.701Z,33.98
2023-05-13T13:49:42.626Z,33.65
2023-05-13T13:52:49.439Z,33.32
2023-05-13T13:55:55.464Z,32.86
2023-05-13T13:59:08.507Z,33.35
2023-05-13T14:02:26.102Z,33.32
2023-05-13T14:05:33.433Z,33.28
2023-05-13T14:08:39.348Z,33.08
2023-05-13T14:11:46.404Z,32.98
2023-05-13T14:14:52.334Z,32.84
2023-05-13T14:18:01.847Z,32.66
2023-05-13T14:21:08.320Z,33.27
2023-05-13T14:24:16.303Z,33.43
2023-05-13T14:27:24.917Z,33.44
2023-05-13T14:30:31.784Z,33.78
2023-05-13T14:33:43.732Z,34.31
2023-05-13T14:36:50.514Z,34.90
2023-05-13T14:39:56.442Z,34.70
2023-05-13T14:43:05.070Z,34.55
2023-05-13T14:46:11.723Z,34.69
2023-05-13T14:49:27.530Z,35.20
2023-05-13T14:52:36.166Z,35.25
2023-05-13T14:55:43.064Z,35.10
2023-05-13T14:58:53.306Z,36.15
2023-05-13T15:02:04.554Z,36.17
2023-05-13T15:05:14.049Z,36.17
2023-05-13T15:08:21.573Z,36.55
2023-05-13T15:11:29.198Z,37.10
2023-05-13T15:14:36.034Z,37.27
2023-05-13T15:17:42.303Z,37.13
2023-05-13T15:20:51.925Z,37.16
2023-05-13T15:24:01.015Z,37.74
2023-05-13T15:27:08.682Z,37.99
2023-05-13T15:30:16.333Z,38.27
2023-05-13T15:33:23.102Z,38.31
2023-05-13T15:36:33.097Z,38.38
2023-05-13T15:39:39.995Z,38.39
2023-05-13T15:42:46.044Z,38.79
2023-05-13T15:45:53.844Z,38.32
2023-05-13T15:48:59.774Z,38.43
2023-05-13T15:52:11.599Z,38.12
2023-05-13T15:55:25.726Z,38.29
2023-05-13T15:58:34.552Z,38.34
2023-05-13T16:01:42.119Z,38.23
2023-05-13T16:04:51.525Z,38.05
2023-05-13T16:08:00.446Z,38.23
2023-05-13T16:11:07.377Z,38.15
2023-05-13T16:14:13.434Z,38.32
2023-05-13T16:17:33.333Z,38.62
2023-05-13T16:20:39.306Z,38.93
2023-05-13T16:23:48.600Z,38.77
2023-05-13T16:26:54.799Z,38.57
2023-05-13T16:30:12.629Z,38.49
2023-05-13T16:33:18.791Z,39.02
2023-05-13T16:36:27.084Z,38.77
2023-05-13T16:39:48.632Z,38.89
2023-05-13T16:43:02.512Z,38.88
2023-05-13T16:46:09.760Z,39.38
2023-05-13T16:49:16.610Z,39.88
2023-05-13T16:52:22.614Z,40.04
2023-05-13T16:55:33.361Z,40.51
2023-05-13T16:58:39.533Z,40.53
2023-05-13T17:01:46.495Z,40.57
2023-05-13T17:05:01.777Z,40.34
2023-05-13T17:08:11.496Z,39.82
2023-05-13T17:11:19.918Z,40.60
2023-05-13T17:14:28.484Z,40.10
2023-05-13T17:17:37.730Z,40.08
2023-05-13T17:20:45.998Z,39.46
2023-05-13T17:23:53.762Z,39.42
2023-05-13T17:27:03.219Z,40.09
2023-05-13T17:30:19.389Z,39.64
2023-05-13T17:33:26.237Z,39.88
2023-05-13T17:36:35.222Z,40.46
2023-05-13T17:39:41.952Z,40.51
2023-05-13T17:42:52.594Z,41.48
2023-05-13T17:45:59.735Z,41.37
2023-05-13T17:49:07.396Z,42.08
2023-05-13T17:52:14.236Z,42.84
2023-05-13T17:55:20.440Z,42.91
2023-05-13T17:58:30.078Z,42.88
2023-05-13T18:01:36.005Z,43.25
2023-05-13T18:04:42.917Z,43.39
2023-05-13T18:07:48.861Z,43.79
2023-05-13T18:11:09.186Z,44.14
2023-05-13T18:14:20.510Z,43.70
2023-05-13T18:17:27.660Z,44.31
2023-05-13T18:20:33.750Z,44.18
2023-05-13T18:23:40.816Z,44.88
2023-05-13T18:26:46.823Z,44.51
2023-05-13T18:29:56.304Z,45.18
2023-05-13T18:33:02.395Z,45.04
2023-05-13T18:36:10.988Z,44.53
2023-05-13T18:39:17.138Z,45.00
2023-05-13T18:42:25.547Z,45.25
2023-05-13T18:45:34.294Z,45.24
2023-05-13T18:48:41.374Z,45.12
2023-05-13T18:51:47.775Z,45.77
2023-05-13T18:55:08.502Z,45.58
2023-05-13T18:58:14.797Z,45.54
2023-05-13T19:01:24.425Z,46.24
2023-05-13T19:04:31.254Z,46.64
2023-05-13T19:07:38.459Z,46.77
2023-05-13T19:10:44.650Z,47.24
2023-05-13T19:14:07.825Z,47.35
2023-05-13T19:17:18.532Z,47.74
2023-05-13T19:20:32.639Z,47.91
2023-05-13T19:23:43.323Z,48.35
2023-05-13T19:26:50.532Z,48.58
2023-05-13T19:29:56.467Z,48.50
2023-05-13T19:33:08.317Z,48.88
2023-05-13T19:36:19.491Z,48.90
2023-05-13T19:39:26.428Z,48.99
2023-05-13T19:42:35.958Z,48.75
2023-05-13T19:45:43.137Z,49.02
2023-05-13T19:48:55.966Z,48.89
2023-05-13T19:52:02.897Z,49.03
2023-05-13T19:55:11.043Z,49.74
2023-05-13T19:58:17.974Z,49.72
2023-05-13T20:01:25.172Z,49.73
2023-05-13T20:04:34.723Z,49.81
2023-05-13T20:07:50.751Z,50.44
2023-05-13T20:11:11.008Z,50.90
2023-05-13T20:14:18.433Z,51.04
2023-05-13T20:17:33.490Z,51.32
2023-05-13T20:20:42.193Z,51.87
2023-05-13T20:23:48.902Z,52.17
2023-05-13T20:26:54.860Z,52.46
2023-05-13T20:30:02.455Z,52.97
2023-05-13T20:33:08.605Z,53.35
2023-05-13T20:36:18.163Z,52.97
2023-05-13T20:39:24.303Z,53.18
2023-05-13T20:42:31.041Z,53.56
2023-05-13T20:45:39.976Z,53.61
2023-05-13T20:48:47.782Z,54.05
2023-05-13T20:51:56.597Z,54.13
2023-05-13T20:55:03.661Z,54.36
2023-05-13T20:58:12.404Z,54.56
2023-05-13T21:01:19.315Z,54.65
2023-05-13T21:04:26.470Z,54.74
2023-05-13T21:07:37.948Z,54.96
2023-05-13T21:10:44.164Z,55.04
2023-05-13T21:13:51.337Z,54.84
2023-05-13T21:16:57.408Z,55.09
2023-05-13T21:20:04.697Z,55.19
2023-05-13T21:23:16.003Z,55.47
2023-05-13T21:26:23.432Z,55.09
2023-05-13T21:29:34.534Z,54.98
2023-05-13T21:32:41.410Z,55.01
2023-05-13T21:35:47.396Z,54.69
2023-05-13T21:38:56.950Z,55.14
2023-05-13T21:42:03.698Z,54.62
2023-05-13T21:45:12.272Z,54.85
2023-05-13T21:48:18.473Z,55.24
2023-05-13T21:51:26.080Z,55.49
2023-05-13T21:54:34.678Z,55.30
2023-05-13T21:57:41.553Z,55.34
2023-05-13T22:00:47.559Z,55.45
2023-05-13T22:03:54.311Z,55.57
2023-05-13T22:07:00.356Z,55.85
2023-05-13T22:10:11.725Z,56.09
2023-05-13T22:13:17.728Z,55.99
2023-05-13T22:16:24.819Z,56.41
2023-05-13T22:19:31.069Z,56.52
2023-05-13T22:22:37.899Z,56.71
2023-05-13T22:25:46.534Z,56.49
2023-05-13T22:29:47.760Z,56.69
2023-05-13T22:32:56.164Z,56.88
2023-05-13T22:36:02.122Z,56.96
2023-05-13T22:39:09.007Z,57.35
2023-05-13T22:42:15.082Z,57.94
2023-05-13T22:45:28.780Z,57.77
2023-05-13T22:48:34.920Z,58.18
2023-05-13T22:51:41.733Z,58.46
2023-05-13T22:54:47.861Z,58.39
2023-05-13T22:57:57.258Z,58.66
2023-05-13T23:01:05.792Z,58.85
2023-05-13T23:04:12.568Z,59.21
2023-05-13T23:07:18.441Z,59.06
2023-05-13T23:10:25.484Z,59.22
2023-05-13T23:13:31.861Z,59.24
2023-05-13T23:16:41.584Z,59.42
2023-05-13T23:19:47.696Z,59.57
2023-05-13T23:22:57.592Z,59.80
2023-05-13T23:26:04.590Z,60.01
2023-05-13T23:29:11.583Z,60.08
2023-05-13T23:32:20.272Z,60.15
2023-05-13T23:35:26.969Z,60.72
2023-05-13T23:38:32.901Z,60.68
2023-05-13T23:41:39.589Z,60.98
2023-05-13T23:44:46.464Z,61.19
2023-05-13T23:47:56.511Z,61.68
2023-05-13T23:51:02.380Z,62.08
2023-05-13T23:54:09.255Z,62.49
2023-05-13T23:57:15.923Z,62.34
